sensor_id;sensor_type;location;lat;lon;timestamp;P1;durP1;ratioP1;P2;durP2;ratioP2
6131;SDS011;3097;42.692;23.278;2022-10-16T00:01:23;29.67;;;12.83;;
6131;SDS011;3097;42.692;23.278;2022-10-16T00:03:51;28.53;;;13.57;;
6131;SDS011;3097;42.692;23.278;2022-10-16T00:06:17;33.53;;;15.80;;
6131;SDS011;3097;42.692;23.278;2022-10-16T00:08:44;34.50;;;16.97;;
6131;SDS011;3097;42.692;23.278;2022-10-16T00:11:15;31.03;;;17.10;;
6131;SDS011;3097;42.692;23.278;2022-10-16T00:13:44;32.13;;;14.90;;
6131;SDS011;3097;42.692;23.278;2022-10-16T00:16:11;31.00;;;15.43;;
6131;SDS011;3097;42.692;23.278;2022-10-16T00:18:38;31.80;;;14.50;;
6131;SDS011;3097;42.692;23.278;2022-10-16T00:21:04;26.40;;;14.33;;
6131;SDS011;3097;42.692;23.278;2022-10-16T00:23:34;28.37;;;14.73;;
6131;SDS011;3097;42.692;23.278;2022-10-16T00:26:01;32.03;;;15.27;;
6131;SDS011;3097;42.692;23.278;2022-10-16T00:28:30;26.63;;;14.30;;
6131;SDS011;3097;42.692;23.278;2022-10-16T00:30:56;22.77;;;13.13;;
6131;SDS011;3097;42.692;23.278;2022-10-16T00:33:21;21.83;;;12.60;;
6131;SDS011;3097;42.692;23.278;2022-10-16T00:35:47;22.57;;;11.40;;
6131;SDS011;3097;42.692;23.278;2022-10-16T00:38:13;18.93;;;11.53;;
6131;SDS011;3097;42.692;23.278;2022-10-16T00:40:38;21.37;;;10.93;;
6131;SDS011;3097;42.692;23.278;2022-10-16T00:43:11;21.63;;;10.27;;
6131;SDS011;3097;42.692;23.278;2022-10-16T00:45:39;20.43;;;10.17;;
6131;SDS011;3097;42.692;23.278;2022-10-16T00:48:06;16.73;;;10.17;;
6131;SDS011;3097;42.692;23.278;2022-10-16T00:50:37;16.50;;;9.33;;
6131;SDS011;3097;42.692;23.278;2022-10-16T00:53:03;17.87;;;10.37;;
6131;SDS011;3097;42.692;23.278;2022-10-16T00:55:29;15.93;;;9.70;;
6131;SDS011;3097;42.692;23.278;2022-10-16T00:57:55;16.93;;;9.87;;
6131;SDS011;3097;42.692;23.278;2022-10-16T01:00:23;14.87;;;9.40;;
6131;SDS011;3097;42.692;23.278;2022-10-16T01:02:52;15.50;;;9.63;;
6131;SDS011;3097;42.692;23.278;2022-10-16T01:08:27;16.87;;;8.30;;
6131;SDS011;3097;42.692;23.278;2022-10-16T01:13:55;11.23;;;7.53;;
6131;SDS011;3097;42.692;23.278;2022-10-16T01:16:34;13.33;;;9.03;;
6131;SDS011;3097;42.692;23.278;2022-10-16T01:21:43;17.47;;;8.77;;
6131;SDS011;3097;42.692;23.278;2022-10-16T01:27:12;13.43;;;8.63;;
6131;SDS011;3097;42.692;23.278;2022-10-16T01:32:22;12.97;;;8.80;;
6131;SDS011;3097;42.692;23.278;2022-10-16T01:34:52;13.73;;;8.60;;
6131;SDS011;3097;42.692;23.278;2022-10-16T01:37:35;14.30;;;9.00;;
6131;SDS011;3097;42.692;23.278;2022-10-16T01:40:06;11.20;;;8.03;;
6131;SDS011;3097;42.692;23.278;2022-10-16T01:42:37;15.70;;;8.70;;
6131;SDS011;3097;42.692;23.278;2022-10-16T01:45:07;13.67;;;9.40;;
6131;SDS011;3097;42.692;23.278;2022-10-16T01:47:36;14.20;;;9.37;;
6131;SDS011;3097;42.692;23.278;2022-10-16T01:50:04;15.33;;;9.73;;
6131;SDS011;3097;42.692;23.278;2022-10-16T01:52:31;22.17;;;10.73;;
6131;SDS011;3097;42.692;23.278;2022-10-16T01:55:00;20.93;;;10.43;;
6131;SDS011;3097;42.692;23.278;2022-10-16T01:57:29;22.97;;;11.60;;
6131;SDS011;3097;42.692;23.278;2022-10-16T01:59:56;23.33;;;11.50;;
6131;SDS011;3097;42.692;23.278;2022-10-16T02:02:26;25.43;;;12.43;;
6131;SDS011;3097;42.692;23.278;2022-10-16T02:04:57;19.27;;;10.27;;
6131;SDS011;3097;42.692;23.278;2022-10-16T02:07:26;19.10;;;10.37;;
6131;SDS011;3097;42.692;23.278;2022-10-16T02:09:52;19.97;;;10.50;;
6131;SDS011;3097;42.692;23.278;2022-10-16T02:12:25;17.47;;;10.70;;
6131;SDS011;3097;42.692;23.278;2022-10-16T02:14:53;20.63;;;11.43;;
6131;SDS011;3097;42.692;23.278;2022-10-16T02:17:20;19.00;;;10.87;;
6131;SDS011;3097;42.692;23.278;2022-10-16T02:19:46;17.20;;;9.93;;
6131;SDS011;3097;42.692;23.278;2022-10-16T02:30:23;18.40;;;10.10;;
6131;SDS011;3097;42.692;23.278;2022-10-16T02:32:55;21.93;;;11.47;;
6131;SDS011;3097;42.692;23.278;2022-10-16T02:35:23;22.03;;;11.43;;
6131;SDS011;3097;42.692;23.278;2022-10-16T02:37:50;24.50;;;12.80;;
6131;SDS011;3097;42.692;23.278;2022-10-16T02:40:17;25.07;;;14.13;;
6131;SDS011;3097;42.692;23.278;2022-10-16T02:42:43;36.10;;;15.93;;
6131;SDS011;3097;42.692;23.278;2022-10-16T02:45:09;32.73;;;16.87;;
6131;SDS011;3097;42.692;23.278;2022-10-16T02:47:36;33.07;;;17.27;;
6131;SDS011;3097;42.692;23.278;2022-10-16T02:50:02;35.67;;;17.07;;
6131;SDS011;3097;42.692;23.278;2022-10-16T02:52:28;36.47;;;18.70;;
6131;SDS011;3097;42.692;23.278;2022-10-16T02:54:53;38.83;;;18.07;;
6131;SDS011;3097;42.692;23.278;2022-10-16T02:57:19;40.47;;;19.30;;
6131;SDS011;3097;42.692;23.278;2022-10-16T02:59:44;42.20;;;19.47;;
6131;SDS011;3097;42.692;23.278;2022-10-16T03:02:10;47.63;;;21.57;;
6131;SDS011;3097;42.692;23.278;2022-10-16T03:04:36;51.43;;;24.53;;
6131;SDS011;3097;42.692;23.278;2022-10-16T03:07:01;54.27;;;23.40;;
6131;SDS011;3097;42.692;23.278;2022-10-16T03:09:27;51.20;;;22.47;;
6131;SDS011;3097;42.692;23.278;2022-10-16T03:11:53;46.27;;;22.17;;
6131;SDS011;3097;42.692;23.278;2022-10-16T03:14:18;46.27;;;21.00;;
6131;SDS011;3097;42.692;23.278;2022-10-16T03:16:44;41.60;;;19.03;;
6131;SDS011;3097;42.692;23.278;2022-10-16T03:19:09;33.17;;;17.20;;
6131;SDS011;3097;42.692;23.278;2022-10-16T03:21:34;33.57;;;18.60;;
6131;SDS011;3097;42.692;23.278;2022-10-16T03:24:00;36.00;;;18.20;;
6131;SDS011;3097;42.692;23.278;2022-10-16T03:26:25;33.73;;;17.60;;
6131;SDS011;3097;42.692;23.278;2022-10-16T03:28:51;32.97;;;16.97;;
6131;SDS011;3097;42.692;23.278;2022-10-16T03:31:16;31.50;;;16.40;;
6131;SDS011;3097;42.692;23.278;2022-10-16T03:33:42;30.57;;;15.87;;
6131;SDS011;3097;42.692;23.278;2022-10-16T03:36:07;24.63;;;15.03;;
6131;SDS011;3097;42.692;23.278;2022-10-16T03:38:33;24.90;;;14.13;;
6131;SDS011;3097;42.692;23.278;2022-10-16T03:40:58;29.33;;;13.93;;
6131;SDS011;3097;42.692;23.278;2022-10-16T03:43:24;20.10;;;12.07;;
6131;SDS011;3097;42.692;23.278;2022-10-16T03:45:50;20.17;;;12.07;;
6131;SDS011;3097;42.692;23.278;2022-10-16T03:48:16;21.33;;;11.60;;
6131;SDS011;3097;42.692;23.278;2022-10-16T03:50:43;19.33;;;11.07;;
6131;SDS011;3097;42.692;23.278;2022-10-16T03:53:08;25.07;;;12.13;;
6131;SDS011;3097;42.692;23.278;2022-10-16T03:55:34;23.77;;;12.53;;
6131;SDS011;3097;42.692;23.278;2022-10-16T03:57:59;22.90;;;12.13;;
6131;SDS011;3097;42.692;23.278;2022-10-16T04:00:25;19.87;;;10.80;;
6131;SDS011;3097;42.692;23.278;2022-10-16T04:02:51;20.63;;;11.67;;
6131;SDS011;3097;42.692;23.278;2022-10-16T04:05:17;26.00;;;12.80;;
6131;SDS011;3097;42.692;23.278;2022-10-16T04:07:42;23.90;;;12.67;;
6131;SDS011;3097;42.692;23.278;2022-10-16T04:10:08;22.33;;;12.80;;
6131;SDS011;3097;42.692;23.278;2022-10-16T04:12:33;23.27;;;13.23;;
6131;SDS011;3097;42.692;23.278;2022-10-16T04:14:59;21.73;;;12.07;;
6131;SDS011;3097;42.692;23.278;2022-10-16T04:17:24;23.30;;;13.20;;
6131;SDS011;3097;42.692;23.278;2022-10-16T04:19:49;22.67;;;13.80;;
6131;SDS011;3097;42.692;23.278;2022-10-16T04:22:15;29.00;;;13.77;;
6131;SDS011;3097;42.692;23.278;2022-10-16T04:24:40;28.63;;;14.97;;
6131;SDS011;3097;42.692;23.278;2022-10-16T04:27:06;37.73;;;16.17;;
6131;SDS011;3097;42.692;23.278;2022-10-16T04:29:31;33.27;;;17.50;;
6131;SDS011;3097;42.692;23.278;2022-10-16T04:31:57;36.43;;;17.60;;
6131;SDS011;3097;42.692;23.278;2022-10-16T04:34:22;33.57;;;16.73;;
6131;SDS011;3097;42.692;23.278;2022-10-16T04:36:48;28.37;;;16.43;;
6131;SDS011;3097;42.692;23.278;2022-10-16T04:39:14;35.50;;;16.97;;
6131;SDS011;3097;42.692;23.278;2022-10-16T04:41:40;29.93;;;16.17;;
6131;SDS011;3097;42.692;23.278;2022-10-16T04:44:05;35.33;;;17.10;;
6131;SDS011;3097;42.692;23.278;2022-10-16T04:46:31;42.23;;;17.77;;
6131;SDS011;3097;42.692;23.278;2022-10-16T04:48:56;40.17;;;19.43;;
6131;SDS011;3097;42.692;23.278;2022-10-16T04:51:22;48.10;;;21.30;;
6131;SDS011;3097;42.692;23.278;2022-10-16T04:53:47;53.17;;;23.90;;
6131;SDS011;3097;42.692;23.278;2022-10-16T04:56:13;47.43;;;23.50;;
6131;SDS011;3097;42.692;23.278;2022-10-16T04:58:39;50.80;;;24.87;;
6131;SDS011;3097;42.692;23.278;2022-10-16T05:01:05;51.00;;;23.73;;
6131;SDS011;3097;42.692;23.278;2022-10-16T05:03:30;57.20;;;26.57;;
6131;SDS011;3097;42.692;23.278;2022-10-16T05:05:56;55.77;;;27.70;;
6131;SDS011;3097;42.692;23.278;2022-10-16T05:08:21;57.27;;;27.93;;
6131;SDS011;3097;42.692;23.278;2022-10-16T05:10:47;61.57;;;28.90;;
6131;SDS011;3097;42.692;23.278;2022-10-16T05:13:12;63.40;;;30.23;;
6131;SDS011;3097;42.692;23.278;2022-10-16T05:15:38;59.90;;;29.27;;
6131;SDS011;3097;42.692;23.278;2022-10-16T05:18:03;57.97;;;28.27;;
6131;SDS011;3097;42.692;23.278;2022-10-16T05:20:28;52.17;;;25.37;;
6131;SDS011;3097;42.692;23.278;2022-10-16T05:22:54;51.80;;;25.20;;
6131;SDS011;3097;42.692;23.278;2022-10-16T05:25:20;56.87;;;24.93;;
6131;SDS011;3097;42.692;23.278;2022-10-16T05:27:48;50.47;;;26.13;;
6131;SDS011;3097;42.692;23.278;2022-10-16T05:30:14;48.97;;;25.43;;
6131;SDS011;3097;42.692;23.278;2022-10-16T05:32:40;44.60;;;22.97;;
6131;SDS011;3097;42.692;23.278;2022-10-16T05:35:06;48.03;;;23.70;;
6131;SDS011;3097;42.692;23.278;2022-10-16T05:37:32;67.53;;;24.33;;
6131;SDS011;3097;42.692;23.278;2022-10-16T05:39:57;65.13;;;23.80;;
6131;SDS011;3097;42.692;23.278;2022-10-16T05:42:23;69.13;;;23.53;;
6131;SDS011;3097;42.692;23.278;2022-10-16T05:44:48;44.93;;;20.30;;
6131;SDS011;3097;42.692;23.278;2022-10-16T05:47:14;34.67;;;16.83;;
6131;SDS011;3097;42.692;23.278;2022-10-16T05:49:39;32.77;;;16.97;;
6131;SDS011;3097;42.692;23.278;2022-10-16T05:52:05;29.00;;;16.23;;
6131;SDS011;3097;42.692;23.278;2022-10-16T05:54:30;26.40;;;15.00;;
6131;SDS011;3097;42.692;23.278;2022-10-16T05:56:56;26.77;;;16.87;;
6131;SDS011;3097;42.692;23.278;2022-10-16T05:59:21;29.23;;;15.97;;
6131;SDS011;3097;42.692;23.278;2022-10-16T06:01:46;22.30;;;14.07;;
6131;SDS011;3097;42.692;23.278;2022-10-16T06:04:12;23.80;;;14.70;;
6131;SDS011;3097;42.692;23.278;2022-10-16T06:06:37;24.80;;;14.17;;
6131;SDS011;3097;42.692;23.278;2022-10-16T06:09:03;22.37;;;13.47;;
6131;SDS011;3097;42.692;23.278;2022-10-16T06:11:30;19.53;;;12.50;;
6131;SDS011;3097;42.692;23.278;2022-10-16T06:13:58;20.20;;;12.07;;
6131;SDS011;3097;42.692;23.278;2022-10-16T06:16:26;21.37;;;12.30;;
6131;SDS011;3097;42.692;23.278;2022-10-16T06:18:53;20.93;;;12.03;;
6131;SDS011;3097;42.692;23.278;2022-10-16T06:21:21;22.77;;;12.83;;
6131;SDS011;3097;42.692;23.278;2022-10-16T06:23:50;20.90;;;12.73;;
6131;SDS011;3097;42.692;23.278;2022-10-16T06:26:17;21.60;;;12.40;;
6131;SDS011;3097;42.692;23.278;2022-10-16T06:28:44;15.33;;;10.13;;
6131;SDS011;3097;42.692;23.278;2022-10-16T06:31:10;18.93;;;10.73;;
6131;SDS011;3097;42.692;23.278;2022-10-16T06:33:37;16.97;;;10.60;;
6131;SDS011;3097;42.692;23.278;2022-10-16T06:36:08;18.00;;;11.90;;
6131;SDS011;3097;42.692;23.278;2022-10-16T06:38:36;17.53;;;11.57;;
6131;SDS011;3097;42.692;23.278;2022-10-16T06:41:02;22.90;;;13.63;;
6131;SDS011;3097;42.692;23.278;2022-10-16T06:43:29;21.23;;;12.50;;
6131;SDS011;3097;42.692;23.278;2022-10-16T06:46:00;19.63;;;12.47;;
6131;SDS011;3097;42.692;23.278;2022-10-16T06:48:27;15.90;;;11.40;;
6131;SDS011;3097;42.692;23.278;2022-10-16T06:53:23;11.93;;;9.47;;
6131;SDS011;3097;42.692;23.278;2022-10-16T06:55:48;11.43;;;9.43;;
6131;SDS011;3097;42.692;23.278;2022-10-16T06:58:14;12.47;;;9.20;;
6131;SDS011;3097;42.692;23.278;2022-10-16T07:00:39;10.47;;;8.57;;
6131;SDS011;3097;42.692;23.278;2022-10-16T07:03:04;9.57;;;8.57;;
6131;SDS011;3097;42.692;23.278;2022-10-16T07:05:30;11.40;;;9.40;;
6131;SDS011;3097;42.692;23.278;2022-10-16T07:07:55;9.90;;;8.90;;
6131;SDS011;3097;42.692;23.278;2022-10-16T07:10:21;10.07;;;8.83;;
6131;SDS011;3097;42.692;23.278;2022-10-16T07:12:49;10.37;;;9.30;;
6131;SDS011;3097;42.692;23.278;2022-10-16T07:15:14;10.20;;;9.13;;
6131;SDS011;3097;42.692;23.278;2022-10-16T07:17:40;9.77;;;8.87;;
6131;SDS011;3097;42.692;23.278;2022-10-16T07:20:06;10.33;;;9.23;;
6131;SDS011;3097;42.692;23.278;2022-10-16T07:22:31;10.67;;;9.67;;
6131;SDS011;3097;42.692;23.278;2022-10-16T07:24:57;10.70;;;9.70;;
6131;SDS011;3097;42.692;23.278;2022-10-16T07:27:23;11.97;;;10.23;;
6131;SDS011;3097;42.692;23.278;2022-10-16T07:29:49;14.13;;;9.70;;
6131;SDS011;3097;42.692;23.278;2022-10-16T07:32:14;9.83;;;8.67;;
6131;SDS011;3097;42.692;23.278;2022-10-16T07:34:40;13.03;;;9.27;;
6131;SDS011;3097;42.692;23.278;2022-10-16T07:37:05;10.57;;;9.37;;
6131;SDS011;3097;42.692;23.278;2022-10-16T07:39:30;11.27;;;9.50;;
6131;SDS011;3097;42.692;23.278;2022-10-16T07:41:56;12.13;;;9.50;;
6131;SDS011;3097;42.692;23.278;2022-10-16T07:44:21;12.93;;;11.07;;
6131;SDS011;3097;42.692;23.278;2022-10-16T07:46:47;13.10;;;10.67;;
6131;SDS011;3097;42.692;23.278;2022-10-16T07:49:12;14.67;;;11.30;;
6131;SDS011;3097;42.692;23.278;2022-10-16T07:51:38;12.83;;;10.60;;
6131;SDS011;3097;42.692;23.278;2022-10-16T07:54:04;10.60;;;9.57;;
6131;SDS011;3097;42.692;23.278;2022-10-16T07:56:30;11.93;;;10.40;;
6131;SDS011;3097;42.692;23.278;2022-10-16T07:58:57;13.57;;;10.80;;
6131;SDS011;3097;42.692;23.278;2022-10-16T08:01:23;11.37;;;10.10;;
6131;SDS011;3097;42.692;23.278;2022-10-16T08:03:49;13.20;;;10.73;;
6131;SDS011;3097;42.692;23.278;2022-10-16T08:06:16;14.03;;;10.60;;
6131;SDS011;3097;42.692;23.278;2022-10-16T08:08:42;15.07;;;10.43;;
6131;SDS011;3097;42.692;23.278;2022-10-16T08:11:08;12.67;;;10.17;;
6131;SDS011;3097;42.692;23.278;2022-10-16T08:13:34;14.63;;;10.97;;
6131;SDS011;3097;42.692;23.278;2022-10-16T08:16:00;14.27;;;10.00;;
6131;SDS011;3097;42.692;23.278;2022-10-16T08:18:26;11.23;;;10.00;;
6131;SDS011;3097;42.692;23.278;2022-10-16T08:20:55;14.37;;;10.30;;
6131;SDS011;3097;42.692;23.278;2022-10-16T08:23:22;12.60;;;11.30;;
6131;SDS011;3097;42.692;23.278;2022-10-16T08:25:48;14.40;;;11.70;;
6131;SDS011;3097;42.692;23.278;2022-10-16T08:28:13;13.47;;;9.70;;
6131;SDS011;3097;42.692;23.278;2022-10-16T08:30:38;13.70;;;9.07;;
6131;SDS011;3097;42.692;23.278;2022-10-16T08:33:04;9.20;;;8.30;;
6131;SDS011;3097;42.692;23.278;2022-10-16T08:35:31;8.73;;;7.80;;
6131;SDS011;3097;42.692;23.278;2022-10-16T08:37:56;8.53;;;7.73;;
6131;SDS011;3097;42.692;23.278;2022-10-16T08:40:26;7.83;;;7.03;;
6131;SDS011;3097;42.692;23.278;2022-10-16T08:48:08;7.97;;;7.17;;
6131;SDS011;3097;42.692;23.278;2022-10-16T08:50:36;8.53;;;6.97;;
6131;SDS011;3097;42.692;23.278;2022-10-16T08:53:04;7.47;;;6.60;;
6131;SDS011;3097;42.692;23.278;2022-10-16T08:55:38;6.90;;;6.30;;
6131;SDS011;3097;42.692;23.278;2022-10-16T08:58:19;6.97;;;6.27;;
6131;SDS011;3097;42.692;23.278;2022-10-16T09:00:48;9.73;;;6.27;;
6131;SDS011;3097;42.692;23.278;2022-10-16T09:03:37;6.67;;;6.07;;
6131;SDS011;3097;42.692;23.278;2022-10-16T09:12:18;5.50;;;5.00;;
6131;SDS011;3097;42.692;23.278;2022-10-16T09:20:25;4.33;;;3.93;;
6131;SDS011;3097;42.692;23.278;2022-10-16T09:22:48;4.50;;;4.20;;
6131;SDS011;3097;42.692;23.278;2022-10-16T09:25:22;4.60;;;4.30;;
6131;SDS011;3097;42.692;23.278;2022-10-16T09:27:48;6.27;;;4.40;;
6131;SDS011;3097;42.692;23.278;2022-10-16T09:30:18;4.63;;;4.23;;
6131;SDS011;3097;42.692;23.278;2022-10-16T09:32:45;4.90;;;4.40;;
6131;SDS011;3097;42.692;23.278;2022-10-16T09:35:59;5.10;;;4.37;;
6131;SDS011;3097;42.692;23.278;2022-10-16T09:38:04;4.00;;;3.70;;
6131;SDS011;3097;42.692;23.278;2022-10-16T09:40:35;4.10;;;3.77;;
6131;SDS011;3097;42.692;23.278;2022-10-16T09:43:12;4.30;;;3.90;;
6131;SDS011;3097;42.692;23.278;2022-10-16T09:45:41;5.00;;;4.50;;
6131;SDS011;3097;42.692;23.278;2022-10-16T09:48:13;4.70;;;4.30;;
6131;SDS011;3097;42.692;23.278;2022-10-16T09:50:54;4.70;;;4.27;;
6131;SDS011;3097;42.692;23.278;2022-10-16T09:53:21;4.90;;;4.50;;
6131;SDS011;3097;42.692;23.278;2022-10-16T09:55:51;4.30;;;3.90;;
6131;SDS011;3097;42.692;23.278;2022-10-16T09:58:17;4.30;;;4.00;;
6131;SDS011;3097;42.692;23.278;2022-10-16T10:00:49;4.50;;;4.17;;
6131;SDS011;3097;42.692;23.278;2022-10-16T10:06:06;4.70;;;4.23;;
6131;SDS011;3097;42.692;23.278;2022-10-16T10:08:41;5.27;;;4.10;;
6131;SDS011;3097;42.692;23.278;2022-10-16T10:11:17;4.60;;;4.20;;
6131;SDS011;3097;42.692;23.278;2022-10-16T10:13:42;4.50;;;4.20;;
6131;SDS011;3097;42.692;23.278;2022-10-16T10:16:07;4.70;;;4.30;;
6131;SDS011;3097;42.692;23.278;2022-10-16T10:18:33;4.43;;;4.13;;
6131;SDS011;3097;42.692;23.278;2022-10-16T10:20:59;4.43;;;4.13;;
6131;SDS011;3097;42.692;23.278;2022-10-16T10:23:27;4.93;;;4.43;;
6131;SDS011;3097;42.692;23.278;2022-10-16T10:28:46;4.20;;;3.90;;
6131;SDS011;3097;42.692;23.278;2022-10-16T10:31:17;4.67;;;4.27;;
6131;SDS011;3097;42.692;23.278;2022-10-16T10:33:46;4.67;;;4.30;;
6131;SDS011;3097;42.692;23.278;2022-10-16T10:39:15;4.70;;;4.30;;
6131;SDS011;3097;42.692;23.278;2022-10-16T10:55:37;4.10;;;3.80;;
6131;SDS011;3097;42.692;23.278;2022-10-16T11:10:05;4.80;;;4.40;;
6131;SDS011;3097;42.692;23.278;2022-10-16T11:12:58;4.23;;;3.93;;
6131;SDS011;3097;42.692;23.278;2022-10-16T11:15:36;4.40;;;4.10;;
6131;SDS011;3097;42.692;23.278;2022-10-16T11:18:07;5.33;;;4.30;;
6131;SDS011;3097;42.692;23.278;2022-10-16T11:20:49;4.93;;;4.53;;
6131;SDS011;3097;42.692;23.278;2022-10-16T11:23:29;4.50;;;4.10;;
6131;SDS011;3097;42.692;23.278;2022-10-16T11:26:01;4.20;;;3.90;;
6131;SDS011;3097;42.692;23.278;2022-10-16T11:31:02;4.93;;;4.53;;
6131;SDS011;3097;42.692;23.278;2022-10-16T11:33:37;4.47;;;4.17;;
6131;SDS011;3097;42.692;23.278;2022-10-16T11:38:58;5.07;;;4.57;;
6131;SDS011;3097;42.692;23.278;2022-10-16T11:53:24;5.17;;;4.73;;
6131;SDS011;3097;42.692;23.278;2022-10-16T11:56:18;4.80;;;4.40;;
6131;SDS011;3097;42.692;23.278;2022-10-16T12:01:28;4.67;;;4.23;;
6131;SDS011;3097;42.692;23.278;2022-10-16T12:04:22;4.60;;;4.20;;
6131;SDS011;3097;42.692;23.278;2022-10-16T12:07:15;4.07;;;3.77;;
6131;SDS011;3097;42.692;23.278;2022-10-16T12:09:49;4.03;;;3.73;;
6131;SDS011;3097;42.692;23.278;2022-10-16T12:12:27;4.53;;;3.90;;
6131;SDS011;3097;42.692;23.278;2022-10-16T12:15:18;3.30;;;2.70;;
6131;SDS011;3097;42.692;23.278;2022-10-16T12:17:44;4.60;;;3.90;;
6131;SDS011;3097;42.692;23.278;2022-10-16T12:22:52;3.87;;;3.57;;
6131;SDS011;3097;42.692;23.278;2022-10-16T12:25:53;4.30;;;4.00;;
6131;SDS011;3097;42.692;23.278;2022-10-16T12:28:19;4.00;;;3.63;;
6131;SDS011;3097;42.692;23.278;2022-10-16T12:30:53;4.40;;;3.97;;
6131;SDS011;3097;42.692;23.278;2022-10-16T12:33:29;3.70;;;3.40;;
6131;SDS011;3097;42.692;23.278;2022-10-16T12:35:57;4.73;;;4.33;;
6131;SDS011;3097;42.692;23.278;2022-10-16T12:38:28;4.00;;;3.70;;
6131;SDS011;3097;42.692;23.278;2022-10-16T12:41:07;3.77;;;3.53;;
6131;SDS011;3097;42.692;23.278;2022-10-16T12:43:41;3.80;;;3.50;;
6131;SDS011;3097;42.692;23.278;2022-10-16T12:48:33;6.30;;;5.37;;
6131;SDS011;3097;42.692;23.278;2022-10-16T12:54:15;3.70;;;3.20;;
6131;SDS011;3097;42.692;23.278;2022-10-16T12:59:57;3.93;;;3.63;;
6131;SDS011;3097;42.692;23.278;2022-10-16T13:02:48;4.07;;;3.77;;
6131;SDS011;3097;42.692;23.278;2022-10-16T13:13:30;4.23;;;3.87;;
6131;SDS011;3097;42.692;23.278;2022-10-16T13:16:20;3.50;;;3.20;;
6131;SDS011;3097;42.692;23.278;2022-10-16T13:24:42;4.07;;;3.50;;
6131;SDS011;3097;42.692;23.278;2022-10-16T13:31:11;3.80;;;3.40;;
6131;SDS011;3097;42.692;23.278;2022-10-16T13:33:30;3.97;;;3.63;;
6131;SDS011;3097;42.692;23.278;2022-10-16T13:35:57;4.13;;;3.73;;
6131;SDS011;3097;42.692;23.278;2022-10-16T13:38:25;3.90;;;3.60;;
6131;SDS011;3097;42.692;23.278;2022-10-16T13:43:42;3.27;;;2.97;;
6131;SDS011;3097;42.692;23.278;2022-10-16T13:46:16;3.40;;;3.20;;
6131;SDS011;3097;42.692;23.278;2022-10-16T13:48:59;3.77;;;3.53;;
6131;SDS011;3097;42.692;23.278;2022-10-16T13:51:27;3.97;;;3.67;;
6131;SDS011;3097;42.692;23.278;2022-10-16T13:53:54;3.90;;;3.53;;
6131;SDS011;3097;42.692;23.278;2022-10-16T13:56:21;3.70;;;3.40;;
6131;SDS011;3097;42.692;23.278;2022-10-16T13:58:59;3.70;;;3.40;;
6131;SDS011;3097;42.692;23.278;2022-10-16T14:02:05;3.10;;;2.80;;
6131;SDS011;3097;42.692;23.278;2022-10-16T14:04:22;3.57;;;3.37;;
6131;SDS011;3097;42.692;23.278;2022-10-16T14:06:49;2.83;;;2.57;;
6131;SDS011;3097;42.692;23.278;2022-10-16T14:09:23;3.40;;;3.10;;
6131;SDS011;3097;42.692;23.278;2022-10-16T14:11:53;3.77;;;2.60;;
6131;SDS011;3097;42.692;23.278;2022-10-16T14:14:22;3.60;;;3.30;;
6131;SDS011;3097;42.692;23.278;2022-10-16T14:16:48;3.07;;;2.87;;
6131;SDS011;3097;42.692;23.278;2022-10-16T14:19:24;3.03;;;2.83;;
6131;SDS011;3097;42.692;23.278;2022-10-16T14:21:52;2.93;;;2.73;;
6131;SDS011;3097;42.692;23.278;2022-10-16T14:30:14;4.97;;;3.00;;
6131;SDS011;3097;42.692;23.278;2022-10-16T14:32:52;2.97;;;2.77;;
6131;SDS011;3097;42.692;23.278;2022-10-16T14:35:33;3.07;;;2.77;;
6131;SDS011;3097;42.692;23.278;2022-10-16T14:38:02;3.10;;;2.90;;
6131;SDS011;3097;42.692;23.278;2022-10-16T14:40:30;3.27;;;2.97;;
6131;SDS011;3097;42.692;23.278;2022-10-16T14:42:58;4.07;;;2.90;;
6131;SDS011;3097;42.692;23.278;2022-10-16T14:45:27;3.13;;;2.93;;
6131;SDS011;3097;42.692;23.278;2022-10-16T14:47:56;3.47;;;3.23;;
6131;SDS011;3097;42.692;23.278;2022-10-16T14:50:23;2.97;;;2.70;;
6131;SDS011;3097;42.692;23.278;2022-10-16T14:52:49;3.60;;;3.33;;
6131;SDS011;3097;42.692;23.278;2022-10-16T14:55:15;3.20;;;3.00;;
6131;SDS011;3097;42.692;23.278;2022-10-16T14:57:42;3.40;;;3.10;;
6131;SDS011;3097;42.692;23.278;2022-10-16T15:00:27;3.60;;;3.30;;
6131;SDS011;3097;42.692;23.278;2022-10-16T15:02:52;3.50;;;3.20;;
6131;SDS011;3097;42.692;23.278;2022-10-16T15:05:25;3.20;;;2.90;;
6131;SDS011;3097;42.692;23.278;2022-10-16T15:07:53;3.23;;;2.97;;
6131;SDS011;3097;42.692;23.278;2022-10-16T15:10:20;2.87;;;2.67;;
6131;SDS011;3097;42.692;23.278;2022-10-16T15:12:47;3.40;;;3.20;;
6131;SDS011;3097;42.692;23.278;2022-10-16T15:17:57;3.67;;;3.37;;
6131;SDS011;3097;42.692;23.278;2022-10-16T15:20:26;4.03;;;3.73;;
6131;SDS011;3097;42.692;23.278;2022-10-16T15:22:52;4.07;;;3.60;;
6131;SDS011;3097;42.692;23.278;2022-10-16T15:25:26;3.80;;;3.60;;
6131;SDS011;3097;42.692;23.278;2022-10-16T15:27:52;3.80;;;3.40;;
6131;SDS011;3097;42.692;23.278;2022-10-16T15:30:18;3.40;;;3.10;;
6131;SDS011;3097;42.692;23.278;2022-10-16T15:32:43;3.83;;;3.43;;
6131;SDS011;3097;42.692;23.278;2022-10-16T15:35:09;3.97;;;3.23;;
6131;SDS011;3097;42.692;23.278;2022-10-16T15:37:34;6.80;;;4.00;;
6131;SDS011;3097;42.692;23.278;2022-10-16T15:40:00;3.80;;;3.53;;
6131;SDS011;3097;42.692;23.278;2022-10-16T15:42:26;4.00;;;3.70;;
6131;SDS011;3097;42.692;23.278;2022-10-16T15:44:51;4.37;;;3.97;;
6131;SDS011;3097;42.692;23.278;2022-10-16T15:47:16;3.90;;;3.60;;
6131;SDS011;3097;42.692;23.278;2022-10-16T15:49:42;5.47;;;3.77;;
6131;SDS011;3097;42.692;23.278;2022-10-16T15:52:07;3.90;;;3.60;;
6131;SDS011;3097;42.692;23.278;2022-10-16T15:54:33;4.17;;;3.87;;
6131;SDS011;3097;42.692;23.278;2022-10-16T15:56:58;6.13;;;4.07;;
6131;SDS011;3097;42.692;23.278;2022-10-16T15:59:24;4.73;;;3.40;;
6131;SDS011;3097;42.692;23.278;2022-10-16T16:01:49;7.43;;;4.30;;
6131;SDS011;3097;42.692;23.278;2022-10-16T16:04:14;4.93;;;4.53;;
6131;SDS011;3097;42.692;23.278;2022-10-16T16:06:41;4.93;;;4.40;;
6131;SDS011;3097;42.692;23.278;2022-10-16T16:09:09;11.30;;;8.50;;
6131;SDS011;3097;42.692;23.278;2022-10-16T16:11:38;5.53;;;4.97;;
6131;SDS011;3097;42.692;23.278;2022-10-16T16:14:05;4.17;;;3.87;;
6131;SDS011;3097;42.692;23.278;2022-10-16T16:16:31;5.20;;;3.97;;
6131;SDS011;3097;42.692;23.278;2022-10-16T16:19:01;5.23;;;4.73;;
6131;SDS011;3097;42.692;23.278;2022-10-16T16:21:27;5.13;;;4.70;;
6131;SDS011;3097;42.692;23.278;2022-10-16T16:23:53;8.10;;;4.83;;
6131;SDS011;3097;42.692;23.278;2022-10-16T16:26:25;7.77;;;5.30;;
6131;SDS011;3097;42.692;23.278;2022-10-16T16:29:00;8.87;;;5.50;;
6131;SDS011;3097;42.692;23.278;2022-10-16T16:31:26;8.37;;;6.60;;
6131;SDS011;3097;42.692;23.278;2022-10-16T16:33:52;11.57;;;6.63;;
6131;SDS011;3097;42.692;23.278;2022-10-16T16:36:18;10.43;;;7.93;;
6131;SDS011;3097;42.692;23.278;2022-10-16T16:38:45;7.00;;;6.30;;
6131;SDS011;3097;42.692;23.278;2022-10-16T16:41:14;7.23;;;6.53;;
6131;SDS011;3097;42.692;23.278;2022-10-16T16:43:43;9.90;;;8.40;;
6131;SDS011;3097;42.692;23.278;2022-10-16T16:46:09;15.83;;;9.53;;
6131;SDS011;3097;42.692;23.278;2022-10-16T16:48:35;16.50;;;8.70;;
6131;SDS011;3097;42.692;23.278;2022-10-16T16:51:09;13.30;;;9.43;;
6131;SDS011;3097;42.692;23.278;2022-10-16T16:53:40;13.33;;;9.57;;
6131;SDS011;3097;42.692;23.278;2022-10-16T16:56:06;19.10;;;10.57;;
6131;SDS011;3097;42.692;23.278;2022-10-16T16:58:32;10.37;;;6.50;;
6131;SDS011;3097;42.692;23.278;2022-10-16T17:00:58;11.40;;;7.70;;
6131;SDS011;3097;42.692;23.278;2022-10-16T17:03:28;22.40;;;13.77;;
6131;SDS011;3097;42.692;23.278;2022-10-16T17:06:15;19.30;;;11.10;;
6131;SDS011;3097;42.692;23.278;2022-10-16T17:08:40;15.03;;;10.67;;
6131;SDS011;3097;42.692;23.278;2022-10-16T17:11:11;15.37;;;9.33;;
6131;SDS011;3097;42.692;23.278;2022-10-16T17:13:37;16.00;;;10.97;;